createdAt,value
2017-07-06T00:00:16.187Z,17.40
2017-07-06T00:02:43.699Z,17.40
2017-07-06T00:05:14.282Z,17.40
2017-07-06T00:07:42.523Z,17.30
2017-07-06T00:10:09.982Z,17.20
2017-07-06T00:12:39.303Z,17.20
2017-07-06T00:15:06.854Z,17.20
2017-07-06T00:17:34.408Z,17.10
2017-07-06T00:20:01.882Z,17.10
2017-07-06T00:22:29.423Z,17.10
2017-07-06T00:24:56.892Z,17.10
2017-07-06T00:27:24.455Z,17.10
2017-07-06T00:29:52.016Z,17.10
2017-07-06T00:32:20.271Z,17.00
2017-07-06T00:34:47.722Z,16.90
2017-07-06T00:37:15.186Z,16.90
2017-07-06T00:39:42.654Z,16.90
2017-07-06T00:42:10.209Z,16.70
2017-07-06T00:44:37.671Z,16.60
2017-07-06T00:47:05.133Z,16.60
2017-07-06T00:49:32.693Z,16.60
2017-07-06T00:52:00.971Z,16.60
2017-07-06T00:54:29.325Z,16.70
2017-07-06T00:56:56.790Z,16.60
2017-07-06T00:59:24.340Z,16.70
2017-07-06T01:01:51.795Z,16.70
2017-07-06T01:04:19.366Z,16.70
2017-07-06T01:06:46.829Z,16.70
2017-07-06T01:09:15.152Z,16.70
2017-07-06T01:11:42.565Z,16.70
2017-07-06T01:14:10.829Z,16.70
2017-07-06T01:16:38.390Z,16.70
2017-07-06T01:19:05.865Z,16.80
2017-07-06T01:21:34.079Z,16.70
2017-07-06T01:24:01.552Z,16.60
2017-07-06T01:26:29.027Z,16.70
2017-07-06T01:28:56.599Z,16.60
2017-07-06T01:31:24.159Z,16.60
2017-07-06T01:33:52.417Z,16.50
2017-07-06T01:36:19.981Z,16.50
2017-07-06T01:38:47.461Z,16.40
2017-07-06T01:41:15.726Z,16.40
2017-07-06T01:43:43.962Z,16.40
2017-07-06T01:46:11.449Z,16.40
2017-07-06T01:48:38.917Z,16.40
2017-07-06T01:51:07.149Z,16.40
2017-07-06T01:53:34.636Z,16.30
2017-07-06T01:56:02.092Z,16.40
2017-07-06T01:58:29.660Z,16.40
2017-07-06T02:00:57.932Z,16.30
2017-07-06T02:03:25.485Z,16.30
2017-07-06T02:05:53.034Z,16.30
2017-07-06T02:08:20.611Z,16.30
2017-07-06T02:10:48.841Z,16.20
2017-07-06T02:13:16.324Z,16.20
2017-07-06T02:15:43.890Z,16.20
2017-07-06T02:18:11.459Z,16.20
2017-07-06T02:20:39.009Z,16.20
2017-07-06T02:23:06.570Z,16.20
2017-07-06T02:25:34.032Z,16.20
2017-07-06T02:28:02.260Z,16.10
2017-07-06T02:30:29.735Z,16.10
2017-07-06T02:32:57.215Z,16.10
2017-07-06T02:35:24.678Z,16.20
2017-07-06T02:37:52.228Z,16.10
2017-07-06T02:40:19.785Z,16.20
2017-07-06T02:42:47.258Z,16.20
2017-07-06T02:45:15.490Z,16.20
2017-07-06T02:47:42.983Z,16.20
2017-07-06T02:50:10.547Z,16.20
2017-07-06T02:52:38.786Z,16.20
2017-07-06T02:55:06.266Z,16.20
2017-07-06T02:57:33.839Z,16.20
2017-07-06T03:00:02.105Z,16.30
2017-07-06T03:02:29.671Z,16.20
2017-07-06T03:04:57.230Z,16.20
2017-07-06T03:07:25.494Z,16.20
2017-07-06T03:09:52.952Z,16.20
2017-07-06T03:12:20.412Z,16.20
2017-07-06T03:14:48.645Z,16.10
2017-07-06T03:17:16.142Z,16.10
2017-07-06T03:19:43.702Z,16.20
2017-07-06T03:22:11.161Z,16.20
2017-07-06T03:24:38.605Z,16.20
2017-07-06T03:27:06.183Z,16.30
2017-07-06T03:29:34.437Z,16.30
2017-07-06T03:32:02.010Z,16.30
2017-07-06T03:34:29.554Z,16.30
2017-07-06T03:36:57.033Z,16.30
2017-07-06T03:39:25.284Z,16.40
2017-07-06T03:41:52.849Z,16.40
2017-07-06T03:44:20.416Z,16.40
2017-07-06T03:46:47.979Z,16.40
2017-07-06T03:49:16.246Z,16.50
2017-07-06T03:51:43.707Z,16.50
2017-07-06T03:54:11.997Z,16.50
2017-07-06T03:56:40.230Z,16.50
2017-07-06T03:59:07.700Z,16.50
2017-07-06T04:01:35.168Z,16.50
2017-07-06T04:04:02.641Z,16.50
2017-07-06T04:06:30.917Z,16.70
2017-07-06T04:08:59.159Z,16.70
2017-07-06T04:11:26.625Z,16.70
2017-07-06T04:13:54.081Z,16.80
2017-07-06T04:16:21.537Z,16.80
2017-07-06T04:18:49.106Z,16.90
2017-07-06T04:21:16.664Z,16.90
2017-07-06T04:23:44.222Z,16.90
2017-07-06T04:26:11.690Z,17.00
2017-07-06T04:28:39.918Z,17.10
2017-07-06T04:31:07.361Z,17.10
2017-07-06T04:33:34.851Z,17.20
2017-07-06T04:36:02.309Z,17.30
2017-07-06T04:38:29.971Z,17.30
2017-07-06T04:40:57.425Z,17.30
2017-07-06T04:43:24.913Z,17.30
2017-07-06T04:45:53.154Z,17.50
2017-07-06T04:48:20.609Z,17.40
2017-07-06T04:50:48.178Z,17.50
2017-07-06T04:53:15.733Z,17.50
2017-07-06T04:55:43.197Z,17.50
2017-07-06T04:58:10.757Z,17.60
2017-07-06T05:00:38.228Z,17.70
2017-07-06T05:03:06.490Z,17.80
2017-07-06T05:05:33.944Z,17.80
2017-07-06T05:08:01.414Z,17.80
2017-07-06T05:10:28.877Z,17.80
2017-07-06T05:12:57.151Z,17.90
2017-07-06T05:15:25.361Z,18.00
2017-07-06T05:17:52.835Z,17.90
2017-07-06T05:20:20.329Z,18.00
2017-07-06T05:22:47.888Z,18.00
2017-07-06T05:25:15.442Z,18.10
2017-07-06T05:27:42.919Z,18.10
2017-07-06T05:30:11.132Z,18.30
2017-07-06T05:32:38.617Z,18.20
2017-07-06T05:35:06.074Z,18.30
2017-07-06T05:37:33.650Z,18.40
2017-07-06T05:40:01.191Z,18.40
2017-07-06T05:42:28.747Z,18.40
2017-07-06T05:44:56.201Z,18.50
2017-07-06T05:47:23.869Z,18.50
2017-07-06T05:49:51.339Z,18.60
2017-07-06T05:52:18.788Z,18.60
2017-07-06T05:54:46.249Z,18.40
2017-07-06T05:57:13.705Z,18.50
2017-07-06T05:59:41.164Z,18.50
2017-07-06T06:02:08.614Z,18.60
2017-07-06T06:04:36.150Z,18.70
2017-07-06T06:07:03.620Z,18.80
2017-07-06T06:09:31.100Z,18.80
2017-07-06T06:11:59.375Z,18.90
2017-07-06T06:14:26.921Z,18.90
2017-07-06T06:16:54.487Z,19.00
2017-07-06T06:19:21.944Z,19.00
2017-07-06T06:21:49.503Z,18.90
2017-07-06T06:24:17.065Z,18.90
2017-07-06T06:26:45.341Z,19.00
2017-07-06T06:29:12.897Z,18.90
2017-07-06T06:31:41.146Z,19.10
2017-07-06T06:34:08.618Z,19.00
2017-07-06T06:36:36.072Z,19.00
2017-07-06T06:39:03.527Z,19.00
2017-07-06T06:41:31.010Z,19.00
2017-07-06T06:43:59.259Z,19.50
2017-07-06T06:46:26.814Z,19.50
2017-07-06T06:48:54.269Z,19.90
2017-07-06T06:51:22.566Z,20.10
2017-07-06T06:53:50.045Z,20.40
2017-07-06T06:56:17.571Z,20.60
2017-07-06T06:58:45.037Z,20.70
2017-07-06T07:01:13.331Z,20.80
2017-07-06T07:03:41.576Z,20.50
2017-07-06T07:06:09.152Z,20.50
2017-07-06T07:08:37.377Z,20.40
2017-07-06T07:11:04.838Z,20.40
2017-07-06T07:13:32.306Z,20.40
2017-07-06T07:18:33.811Z,20.40
2017-07-06T07:21:02.103Z,20.40
2017-07-06T07:23:29.530Z,20.30
2017-07-06T07:25:56.990Z,20.40
2017-07-06T07:28:25.208Z,20.80
2017-07-06T07:30:52.690Z,20.70
2017-07-06T07:33:20.171Z,20.90
2017-07-06T07:35:47.635Z,21.00
2017-07-06T07:38:15.885Z,21.40
2017-07-06T07:40:43.413Z,21.30
2017-07-06T07:43:10.908Z,21.50
2017-07-06T07:45:38.365Z,21.60
2017-07-06T07:48:05.822Z,21.60
2017-07-06T07:50:33.391Z,21.40
2017-07-06T07:53:00.858Z,21.50
2017-07-06T07:55:29.086Z,21.50
2017-07-06T07:57:56.590Z,21.40
2017-07-06T08:00:24.841Z,21.40
2017-07-06T08:02:52.297Z,21.40
2017-07-06T08:05:19.864Z,21.70
2017-07-06T08:07:47.480Z,22.00
2017-07-06T08:10:14.991Z,22.10
2017-07-06T08:12:42.532Z,21.80
2017-07-06T08:15:10.001Z,21.80
2017-07-06T08:17:37.552Z,21.90
2017-07-06T08:20:05.217Z,22.00
2017-07-06T08:22:32.782Z,22.20
2017-07-06T08:25:00.319Z,22.20
2017-07-06T08:27:27.829Z,22.10
2017-07-06T08:29:55.352Z,22.00
2017-07-06T08:32:22.813Z,22.20
2017-07-06T08:34:50.283Z,22.40
2017-07-06T08:37:18.537Z,22.10
2017-07-06T08:39:46.101Z,22.10
2017-07-06T08:42:13.645Z,22.20
2017-07-06T08:44:41.110Z,22.30
2017-07-06T08:47:08.673Z,22.40
2017-07-06T08:49:36.158Z,22.50
2017-07-06T08:52:03.638Z,22.60
2017-07-06T08:54:31.137Z,22.70
2017-07-06T08:56:58.593Z,22.60
2017-07-06T08:59:26.494Z,22.50
2017-07-06T09:01:54.743Z,22.50
2017-07-06T09:04:22.209Z,22.40
2017-07-06T09:06:50.449Z,22.30
2017-07-06T09:09:17.936Z,22.20
2017-07-06T09:11:45.476Z,22.40
2017-07-06T09:14:12.941Z,22.60
2017-07-06T09:16:40.402Z,22.80
2017-07-06T09:19:07.871Z,23.00
2017-07-06T09:21:36.126Z,22.70
2017-07-06T09:24:03.593Z,22.70
2017-07-06T09:26:31.073Z,22.60
2017-07-06T09:28:59.292Z,22.60
2017-07-06T09:31:26.778Z,22.50
2017-07-06T09:33:54.343Z,22.60
2017-07-06T09:36:21.791Z,22.80
2017-07-06T09:38:49.243Z,22.80
2017-07-06T09:41:16.814Z,23.00
2017-07-06T09:43:44.360Z,23.00
2017-07-06T09:46:11.845Z,23.10
2017-07-06T09:48:40.085Z,23.40
2017-07-06T09:51:07.662Z,23.40
2017-07-06T09:53:35.210Z,23.40
2017-07-06T09:56:02.663Z,23.60
2017-07-06T09:58:30.130Z,24.10
2017-07-06T10:00:57.682Z,24.50
2017-07-06T10:03:25.241Z,24.50
2017-07-06T10:05:52.815Z,24.70
2017-07-06T10:08:21.041Z,25.00
2017-07-06T10:10:48.532Z,25.00
2017-07-06T10:13:15.998Z,25.00
2017-07-06T10:15:43.553Z,24.70
2017-07-06T10:18:11.005Z,24.50
2017-07-06T10:20:38.467Z,24.50
2017-07-06T10:23:06.737Z,24.60
2017-07-06T10:25:34.193Z,24.70
2017-07-06T10:28:01.647Z,25.10
2017-07-06T10:30:29.097Z,25.20
2017-07-06T10:32:56.667Z,25.60
2017-07-06T10:35:24.225Z,25.70
2017-07-06T10:37:51.799Z,25.30
2017-07-06T10:40:20.058Z,24.90
2017-07-06T10:42:47.524Z,24.90
2017-07-06T10:45:14.984Z,24.90
2017-07-06T10:47:42.446Z,24.80
2017-07-06T10:50:10.684Z,24.60
2017-07-06T10:52:38.188Z,24.50
2017-07-06T10:55:06.427Z,24.30
2017-07-06T10:57:33.895Z,24.30
2017-07-06T11:00:01.367Z,24.80
2017-07-06T11:02:29.604Z,25.60
2017-07-06T11:04:57.155Z,25.50
2017-07-06T11:07:24.737Z,25.60
2017-07-06T11:09:52.222Z,26.00
2017-07-06T11:12:19.762Z,26.10
2017-07-06T11:14:47.313Z,26.40
2017-07-06T11:17:14.779Z,26.80
2017-07-06T11:19:42.333Z,26.90
2017-07-06T11:22:09.783Z,26.60
2017-07-06T11:24:37.245Z,26.50
2017-07-06T11:27:04.706Z,26.50
2017-07-06T11:29:32.966Z,26.30
2017-07-06T11:32:00.425Z,26.20
2017-07-06T11:34:27.977Z,26.30
2017-07-06T11:36:55.437Z,26.50
2017-07-06T11:39:22.991Z,26.50
2017-07-06T11:41:50.562Z,26.40
2017-07-06T11:44:18.127Z,26.00
2017-07-06T11:46:45.672Z,25.90
2017-07-06T11:49:13.122Z,26.40
2017-07-06T11:51:40.693Z,26.20
2017-07-06T11:54:08.249Z,26.10
2017-07-06T11:56:35.697Z,26.10
2017-07-06T11:59:03.155Z,26.10
2017-07-06T12:01:30.736Z,25.60
2017-07-06T12:03:58.280Z,25.50
2017-07-06T12:06:25.727Z,25.90
2017-07-06T12:08:53.200Z,26.60
2017-07-06T12:11:20.740Z,27.20
2017-07-06T12:13:48.328Z,27.90
2017-07-06T12:16:15.772Z,28.20
2017-07-06T12:18:43.320Z,28.00
2017-07-06T12:21:10.888Z,28.10
2017-07-06T12:23:38.358Z,28.00
2017-07-06T12:26:05.902Z,28.20
2017-07-06T12:28:33.461Z,28.10
2017-07-06T12:31:00.979Z,27.90
2017-07-06T12:33:28.436Z,28.20
2017-07-06T12:35:55.880Z,28.60
2017-07-06T12:38:23.389Z,29.10
2017-07-06T12:40:50.854Z,29.50
2017-07-06T12:43:18.299Z,29.50
2017-07-06T12:45:45.767Z,29.10
2017-07-06T12:48:13.223Z,29.10
2017-07-06T12:50:40.778Z,29.00
2017-07-06T12:53:08.346Z,28.60
2017-07-06T12:55:35.889Z,28.80
2017-07-06T12:58:03.449Z,28.60
2017-07-06T13:00:31.013Z,28.30
2017-07-06T13:02:58.466Z,28.20
2017-07-06T13:05:26.040Z,28.30
2017-07-06T13:07:54.293Z,28.80
2017-07-06T13:10:21.857Z,28.70
2017-07-06T13:12:49.411Z,29.00
2017-07-06T13:15:16.887Z,29.20
2017-07-06T13:17:45.157Z,29.20
2017-07-06T13:20:13.437Z,29.10
2017-07-06T13:22:40.992Z,29.10
2017-07-06T13:25:08.432Z,29.10
2017-07-06T13:27:35.893Z,28.80
2017-07-06T13:30:03.353Z,28.60
2017-07-06T13:32:30.810Z,28.80
2017-07-06T13:34:58.255Z,28.90
2017-07-06T13:37:25.830Z,28.50
2017-07-06T13:39:53.441Z,28.00
2017-07-06T13:42:20.927Z,27.60
2017-07-06T13:44:48.502Z,27.60
2017-07-06T13:47:16.044Z,27.60
2017-07-06T13:49:43.495Z,27.70
2017-07-06T13:52:10.978Z,27.70
2017-07-06T13:54:38.421Z,27.80
2017-07-06T13:57:05.892Z,28.40
2017-07-06T13:59:34.124Z,28.90
2017-07-06T14:02:01.623Z,28.90
2017-07-06T14:04:29.082Z,29.00
2017-07-06T14:06:56.528Z,28.70
2017-07-06T14:09:24.089Z,28.80
2017-07-06T14:11:51.660Z,28.60
2017-07-06T14:14:19.163Z,28.30
2017-07-06T14:16:46.657Z,28.40
2017-07-06T14:19:14.130Z,28.60
2017-07-06T14:21:41.689Z,29.00
2017-07-06T14:24:09.195Z,29.40
2017-07-06T14:26:36.653Z,29.60
2017-07-06T14:29:04.146Z,29.40
2017-07-06T14:31:31.692Z,29.10
2017-07-06T14:33:59.152Z,29.10
2017-07-06T14:36:26.723Z,29.40
2017-07-06T14:38:54.192Z,29.60
2017-07-06T14:41:21.654Z,29.50
2017-07-06T14:43:49.921Z,28.80
2017-07-06T14:46:17.469Z,28.70
2017-07-06T14:48:44.921Z,29.20
2017-07-06T14:51:12.381Z,29.10
2017-07-06T14:53:39.843Z,28.90
2017-07-06T14:56:07.418Z,28.60
2017-07-06T14:58:35.733Z,27.70
2017-07-06T15:01:03.238Z,27.70
2017-07-06T15:03:30.796Z,27.60
2017-07-06T15:05:58.351Z,27.20
2017-07-06T15:08:25.913Z,27.10
2017-07-06T15:10:53.369Z,26.90
2017-07-06T15:13:20.829Z,26.70
2017-07-06T15:15:48.273Z,26.80
2017-07-06T15:18:15.742Z,26.90
2017-07-06T15:20:43.299Z,27.00
2017-07-06T15:23:10.840Z,26.90
2017-07-06T15:25:38.307Z,26.70
2017-07-06T15:28:05.769Z,26.70
2017-07-06T15:30:33.220Z,26.80
2017-07-06T15:33:00.677Z,26.80
2017-07-06T15:35:28.129Z,26.90
2017-07-06T15:37:55.599Z,27.10
2017-07-06T15:40:23.058Z,27.20
2017-07-06T15:42:50.527Z,27.20
2017-07-06T15:45:18.783Z,27.30
2017-07-06T15:47:46.336Z,27.30
2017-07-06T15:50:13.904Z,27.40
2017-07-06T15:52:41.356Z,27.40
2017-07-06T15:55:08.968Z,27.30
2017-07-06T15:57:36.478Z,27.30
2017-07-06T16:00:04.005Z,27.30
2017-07-06T16:02:31.486Z,27.30
2017-07-06T16:04:59.061Z,27.20
2017-07-06T16:07:26.529Z,27.10
2017-07-06T16:09:53.990Z,27.20
2017-07-06T16:12:21.446Z,27.20
2017-07-06T16:14:48.901Z,27.30
2017-07-06T16:17:16.361Z,27.40
2017-07-06T16:19:43.822Z,27.60
2017-07-06T16:22:11.291Z,27.90
2017-07-06T16:24:38.746Z,28.00
2017-07-06T16:27:06.244Z,28.10
2017-07-06T16:29:33.703Z,28.10
2017-07-06T16:32:01.224Z,28.40
2017-07-06T16:34:28.722Z,28.60
2017-07-06T16:36:56.239Z,28.60
2017-07-06T16:39:23.743Z,28.80
2017-07-06T16:41:51.208Z,29.00
2017-07-06T16:44:18.747Z,29.10
2017-07-06T16:46:46.212Z,29.30
2017-07-06T16:49:13.755Z,29.40
2017-07-06T16:51:41.216Z,29.30
2017-07-06T16:54:08.781Z,28.80
2017-07-06T16:56:36.233Z,28.60
2017-07-06T16:59:03.699Z,28.60
2017-07-06T17:01:31.244Z,28.70
2017-07-06T17:03:58.808Z,28.80
2017-07-06T17:06:26.269Z,28.50
2017-07-06T17:08:53.729Z,28.30
2017-07-06T17:11:21.281Z,28.20
2017-07-06T17:13:48.851Z,28.30
2017-07-06T17:16:16.393Z,28.40
2017-07-06T17:18:43.954Z,28.60
2017-07-06T17:21:11.423Z,28.80
2017-07-06T17:23:38.881Z,28.80
2017-07-06T17:26:06.423Z,28.80
2017-07-06T17:28:33.890Z,28.50
2017-07-06T17:31:01.459Z,28.30
2017-07-06T17:33:29.004Z,28.40
2017-07-06T17:35:56.456Z,28.40
2017-07-06T17:38:23.904Z,28.30
2017-07-06T17:40:51.379Z,28.30
2017-07-06T17:43:18.832Z,28.30
2017-07-06T17:45:46.289Z,28.30
2017-07-06T17:48:13.871Z,28.20
2017-07-06T17:50:41.354Z,28.20
2017-07-06T17:53:08.876Z,28.00
2017-07-06T17:55:37.109Z,27.50
2017-07-06T17:58:04.600Z,27.50
2017-07-06T18:00:32.865Z,27.20
2017-07-06T18:03:00.429Z,27.10
2017-07-06T18:05:27.987Z,27.10
2017-07-06T18:07:55.550Z,27.00
2017-07-06T18:10:23.092Z,26.90
2017-07-06T18:12:50.556Z,26.80
2017-07-06T18:15:18.117Z,26.70
2017-07-06T18:17:47.131Z,26.50
2017-07-06T18:20:15.398Z,26.30
2017-07-06T18:22:42.839Z,26.30
2017-07-06T18:25:10.408Z,26.20
2017-07-06T18:27:37.948Z,26.10
2017-07-06T18:30:05.421Z,26.10
2017-07-06T18:32:32.891Z,26.00
2017-07-06T18:35:01.149Z,25.90
2017-07-06T18:37:28.616Z,25.90
2017-07-06T18:39:56.153Z,25.80
2017-07-06T18:42:23.722Z,25.70
2017-07-06T18:44:51.282Z,25.70
2017-07-06T18:47:18.736Z,25.60
2017-07-06T18:49:46.288Z,25.60
2017-07-06T18:52:13.844Z,25.50
2017-07-06T18:54:41.305Z,25.40
2017-07-06T18:57:08.851Z,25.30
2017-07-06T18:59:36.411Z,25.20
2017-07-06T19:02:03.868Z,25.20
2017-07-06T19:04:31.334Z,25.10
2017-07-06T19:06:58.889Z,25.00
2017-07-06T19:09:26.358Z,24.90
2017-07-06T19:11:53.812Z,24.80
2017-07-06T19:14:21.379Z,24.70
2017-07-06T19:16:48.915Z,24.60
2017-07-06T19:19:16.477Z,24.50
2017-07-06T19:21:44.103Z,24.40
2017-07-06T19:24:11.563Z,24.30
2017-07-06T19:26:39.062Z,24.20
2017-07-06T19:29:06.608Z,24.10
2017-07-06T19:31:35.471Z,24.10
2017-07-06T19:34:03.066Z,24.00
2017-07-06T19:36:30.625Z,23.90
2017-07-06T19:38:58.194Z,23.90
2017-07-06T19:41:25.738Z,23.80
2017-07-06T19:43:53.193Z,23.70
2017-07-06T19:46:20.765Z,23.60
2017-07-06T19:48:48.227Z,23.50
2017-07-06T19:51:15.778Z,23.40
2017-07-06T19:53:43.344Z,23.40
2017-07-06T19:56:10.894Z,23.30
2017-07-06T19:58:38.454Z,23.30
2017-07-06T20:01:06.014Z,23.20
2017-07-06T20:03:33.566Z,23.10
2017-07-06T20:06:01.027Z,23.00
2017-07-06T20:08:28.583Z,23.00
2017-07-06T20:10:56.128Z,23.00
2017-07-06T20:13:23.593Z,22.90
2017-07-06T20:15:51.149Z,22.90
2017-07-06T20:18:18.613Z,22.80
2017-07-06T20:20:46.080Z,22.80
2017-07-06T20:23:13.549Z,22.70
2017-07-06T20:25:41.762Z,22.60
2017-07-06T20:28:09.229Z,22.60
2017-07-06T20:30:36.681Z,22.60
2017-07-06T20:33:04.151Z,22.50
2017-07-06T20:35:31.629Z,22.50
2017-07-06T20:37:59.175Z,22.40
2017-07-06T20:40:26.628Z,22.50
2017-07-06T20:42:54.103Z,22.40
2017-07-06T20:45:21.578Z,22.40
2017-07-06T20:47:49.835Z,22.40
2017-07-06T20:50:17.288Z,22.30
2017-07-06T20:52:44.849Z,22.30
2017-07-06T20:55:12.404Z,22.30
2017-07-06T20:57:39.946Z,22.40
2017-07-06T21:00:07.512Z,22.40
2017-07-06T21:02:35.095Z,22.40
2017-07-06T21:05:02.552Z,22.40
2017-07-06T21:07:30.786Z,22.30
2017-07-06T21:09:58.258Z,22.30
2017-07-06T21:12:25.731Z,22.30
2017-07-06T21:14:53.291Z,22.30
2017-07-06T21:17:20.846Z,22.30
2017-07-06T21:19:48.401Z,22.20
2017-07-06T21:22:15.952Z,22.20
2017-07-06T21:24:43.418Z,22.20
2017-07-06T21:27:10.872Z,22.10
2017-07-06T21:29:38.335Z,22.00
2017-07-06T21:32:05.875Z,22.00
2017-07-06T21:34:33.351Z,22.00
2017-07-06T21:37:00.813Z,22.00
2017-07-06T21:39:29.079Z,22.00
2017-07-06T21:41:56.636Z,21.90
2017-07-06T21:44:24.502Z,21.90
2017-07-06T21:46:52.047Z,21.90
2017-07-06T21:49:19.517Z,21.80
2017-07-06T21:51:46.983Z,21.80
2017-07-06T21:54:14.520Z,21.80
2017-07-06T21:56:41.987Z,21.70
2017-07-06T21:59:09.446Z,21.70
2017-07-06T22:01:36.906Z,21.70
2017-07-06T22:04:04.444Z,21.60
2017-07-06T22:06:31.906Z,21.60
2017-07-06T22:08:59.475Z,21.60
2017-07-06T22:11:27.024Z,21.60
2017-07-06T22:13:54.599Z,21.60
2017-07-06T22:16:22.178Z,21.60
2017-07-06T22:18:49.709Z,21.60
2017-07-06T22:21:17.369Z,21.50
2017-07-06T22:23:44.820Z,21.50
2017-07-06T22:26:12.282Z,21.50
2017-07-06T22:28:39.842Z,21.50
2017-07-06T22:31:07.298Z,21.50
2017-07-06T22:33:34.763Z,21.50
2017-07-06T22:36:02.310Z,21.50
2017-07-06T22:38:29.761Z,21.50
2017-07-06T22:40:57.328Z,21.50
2017-07-06T22:43:24.894Z,21.50
2017-07-06T22:45:52.356Z,21.40
2017-07-06T22:48:20.610Z,21.30
2017-07-06T22:50:48.173Z,21.20
2017-07-06T22:53:15.629Z,21.20
2017-07-06T22:55:43.180Z,21.20
2017-07-06T22:58:10.641Z,21.20
2017-07-06T23:00:38.200Z,21.20
2017-07-06T23:03:06.041Z,21.20
2017-07-06T23:05:33.530Z,21.20
2017-07-06T23:08:01.085Z,21.20
2017-07-06T23:10:28.651Z,21.20
2017-07-06T23:12:56.196Z,21.20
2017-07-06T23:15:23.655Z,21.20
2017-07-06T23:17:51.224Z,21.20
2017-07-06T23:20:18.677Z,21.20
2017-07-06T23:22:46.234Z,21.10
2017-07-06T23:25:13.803Z,21.10
2017-07-06T23:27:41.309Z,21.10
2017-07-06T23:30:08.820Z,21.10
2017-07-06T23:32:36.382Z,21.00
2017-07-06T23:35:04.641Z,20.90
2017-07-06T23:37:32.194Z,20.80
2017-07-06T23:39:59.762Z,20.80
2017-07-06T23:42:27.308Z,20.80
2017-07-06T23:44:54.769Z,20.80
2017-07-06T23:47:22.216Z,20.80
2017-07-06T23:49:49.688Z,20.80
2017-07-06T23:52:17.235Z,20.70
2017-07-06T23:54:44.811Z,20.70
2017-07-06T23:57:12.279Z,20.70
2017-07-06T23:59:40.546Z,20.60
